createdAt,value
2017-05-09T00:01:23.683Z,102035
2017-05-09T00:03:53.345Z,102041
2017-05-09T00:06:22.297Z,102041
2017-05-09T00:08:51.963Z,102050
2017-05-09T00:11:20.884Z,102047
2017-05-09T00:13:50.180Z,102038
2017-05-09T00:16:19.111Z,102043
2017-05-09T00:18:48.014Z,102029
2017-05-09T00:21:16.968Z,102027
2017-05-09T00:23:46.626Z,102027
2017-05-09T00:26:15.544Z,102027
2017-05-09T00:28:44.500Z,102026
2017-05-09T00:31:13.420Z,102028
2017-05-09T00:33:42.346Z,102025
2017-05-09T00:36:12.018Z,102023
2017-05-09T00:38:40.923Z,102023
2017-05-09T00:41:09.830Z,102012
2017-05-09T00:43:38.770Z,102022
2017-05-09T00:46:07.694Z,102013
2017-05-09T00:48:36.618Z,102011
2017-05-09T00:51:06.313Z,102009
2017-05-09T00:53:35.218Z,102008
2017-05-09T00:56:04.881Z,102004
2017-05-09T00:58:33.837Z,101997
2017-05-09T01:01:02.764Z,101999
2017-05-09T01:03:31.688Z,102005
2017-05-09T01:06:00.618Z,102002
2017-05-09T01:08:29.551Z,102002
2017-05-09T01:10:58.474Z,102001
2017-05-09T01:13:27.666Z,101991
2017-05-09T01:15:56.588Z,101998
2017-05-09T01:18:25.517Z,102003
2017-05-09T01:20:54.445Z,101997
2017-05-09T01:23:23.347Z,101992
2017-05-09T01:25:53.002Z,101998
2017-05-09T01:28:21.949Z,101982
2017-05-09T01:30:51.590Z,101984
2017-05-09T01:33:20.496Z,101981
2017-05-09T01:35:49.448Z,101980
2017-05-09T01:38:19.090Z,101978
2017-05-09T01:40:47.993Z,101974
2017-05-09T01:43:17.035Z,101981
2017-05-09T01:45:46.678Z,101978
2017-05-09T01:48:15.596Z,101978
2017-05-09T01:50:44.552Z,101983
2017-05-09T01:53:13.456Z,101984
2017-05-09T01:55:42.384Z,101984
2017-05-09T01:58:11.326Z,101988
2017-05-09T02:00:40.239Z,101992
2017-05-09T02:03:09.146Z,101980
2017-05-09T02:05:38.083Z,101985
2017-05-09T02:08:07.753Z,101977
2017-05-09T02:10:36.682Z,101989
2017-05-09T02:13:06.376Z,101990
2017-05-09T02:15:35.296Z,101990
2017-05-09T02:18:04.964Z,101984
2017-05-09T02:20:34.023Z,101976
2017-05-09T02:23:02.926Z,101985
2017-05-09T02:25:31.825Z,101980
2017-05-09T02:28:00.765Z,101977
2017-05-09T02:30:30.427Z,101976
2017-05-09T02:32:59.350Z,101971
2017-05-09T02:35:28.281Z,101983
2017-05-09T02:37:57.213Z,101982
2017-05-09T02:40:26.186Z,101981
2017-05-09T02:42:55.133Z,101974
2017-05-09T02:45:24.056Z,101978
2017-05-09T02:47:52.981Z,101976
2017-05-09T02:50:22.313Z,101973
2017-05-09T02:52:51.214Z,101973
2017-05-09T02:55:20.876Z,101968
2017-05-09T02:57:49.814Z,101963
2017-05-09T03:00:19.458Z,101965
2017-05-09T03:02:48.364Z,101968
2017-05-09T03:05:17.317Z,101969
2017-05-09T03:07:46.970Z,101966
2017-05-09T03:10:15.885Z,101971
2017-05-09T03:12:44.821Z,101970
2017-05-09T03:15:13.740Z,101969
2017-05-09T03:17:42.663Z,101964
2017-05-09T03:20:11.619Z,101963
2017-05-09T03:22:40.541Z,101962
2017-05-09T03:25:09.445Z,101963
2017-05-09T03:27:38.400Z,101967
2017-05-09T03:30:07.301Z,101960
2017-05-09T03:32:36.229Z,101957
2017-05-09T03:35:05.203Z,101953
2017-05-09T03:37:34.106Z,101949
2017-05-09T03:40:03.016Z,101937
2017-05-09T03:42:32.799Z,101936
2017-05-09T03:45:01.702Z,101949
2017-05-09T03:47:30.620Z,101937
2017-05-09T03:50:00.701Z,101944
2017-05-09T03:52:29.610Z,101938
2017-05-09T03:54:58.521Z,101941
2017-05-09T03:57:28.229Z,101935
2017-05-09T03:59:57.153Z,101934
2017-05-09T04:02:26.080Z,101936
2017-05-09T04:04:55.034Z,101940
2017-05-09T04:07:23.956Z,101930
2017-05-09T04:09:52.858Z,101944
2017-05-09T04:12:21.808Z,101936
2017-05-09T04:14:50.729Z,101940
2017-05-09T04:17:19.673Z,101945
2017-05-09T04:19:48.996Z,101946
2017-05-09T04:22:17.921Z,101943
2017-05-09T04:24:46.845Z,101942
2017-05-09T04:27:15.800Z,101941
2017-05-09T04:29:44.706Z,101946
2017-05-09T04:32:13.628Z,101941
2017-05-09T04:34:42.584Z,101947
2017-05-09T04:37:11.495Z,101953
2017-05-09T04:39:40.405Z,101940
2017-05-09T04:42:09.353Z,101943
2017-05-09T04:44:38.262Z,101944
2017-05-09T04:47:07.174Z,101945
2017-05-09T04:49:36.141Z,101940
2017-05-09T04:52:05.815Z,101939
2017-05-09T04:54:34.744Z,101941
2017-05-09T04:57:04.435Z,101949
2017-05-09T04:59:33.356Z,101944
2017-05-09T05:02:03.001Z,101937
2017-05-09T05:04:31.954Z,101948
2017-05-09T05:07:01.621Z,101933
2017-05-09T05:09:30.546Z,101933
2017-05-09T05:12:00.225Z,101939
2017-05-09T05:14:29.153Z,101935
2017-05-09T05:16:58.815Z,101938
2017-05-09T05:19:27.773Z,101938
2017-05-09T05:21:56.692Z,101936
2017-05-09T05:24:25.616Z,101937
2017-05-09T05:26:54.547Z,101932
2017-05-09T05:29:23.462Z,101933
2017-05-09T05:31:52.368Z,101927
2017-05-09T05:34:21.293Z,101932
2017-05-09T05:36:50.195Z,101928
2017-05-09T05:39:19.837Z,101919
2017-05-09T05:41:48.766Z,101932
2017-05-09T05:44:17.756Z,101930
2017-05-09T05:46:46.676Z,101929
2017-05-09T05:49:15.625Z,101920
2017-05-09T05:51:44.549Z,101916
2017-05-09T05:54:13.457Z,101920
2017-05-09T05:56:43.143Z,101926
2017-05-09T05:59:12.076Z,101925
2017-05-09T06:01:40.982Z,101919
2017-05-09T06:04:09.933Z,101918
2017-05-09T06:06:38.861Z,101923
2017-05-09T06:09:07.766Z,101913
2017-05-09T06:11:36.720Z,101913
2017-05-09T06:14:06.370Z,101918
2017-05-09T06:16:35.297Z,101916
2017-05-09T06:19:04.255Z,101915
2017-05-09T06:21:33.180Z,101926
2017-05-09T06:24:02.110Z,101920
2017-05-09T06:26:31.794Z,101927
2017-05-09T06:29:00.728Z,101913
2017-05-09T06:31:29.637Z,101916
2017-05-09T06:33:58.597Z,101915
2017-05-09T06:36:28.250Z,101909
2017-05-09T06:38:57.166Z,101919
2017-05-09T06:41:26.123Z,101908
2017-05-09T06:43:55.038Z,101908
2017-05-09T06:46:23.970Z,101910
2017-05-09T06:48:53.654Z,101900
2017-05-09T06:51:22.593Z,101902
2017-05-09T06:53:51.503Z,101904
2017-05-09T06:56:20.446Z,101911
2017-05-09T06:58:49.372Z,101899
2017-05-09T07:01:18.304Z,101904
2017-05-09T07:03:47.255Z,101897
2017-05-09T07:06:16.184Z,101901
2017-05-09T07:08:45.097Z,101889
2017-05-09T07:11:14.033Z,101902
2017-05-09T07:13:42.965Z,101888
2017-05-09T07:16:11.884Z,101890
2017-05-09T07:18:40.837Z,101891
2017-05-09T07:21:09.750Z,101887
2017-05-09T07:23:38.667Z,101888
2017-05-09T07:26:08.362Z,101882
2017-05-09T07:28:37.279Z,101874
2017-05-09T07:31:06.956Z,101889
2017-05-09T07:33:35.898Z,101887
2017-05-09T07:36:05.842Z,101875
2017-05-09T07:38:34.792Z,101870
2017-05-09T07:41:04.497Z,101875
2017-05-09T07:43:34.168Z,101880
2017-05-09T07:46:03.092Z,101882
2017-05-09T07:48:32.782Z,101874
2017-05-09T07:51:02.689Z,101875
2017-05-09T07:53:31.603Z,101859
2017-05-09T07:56:00.549Z,101872
2017-05-09T07:58:29.467Z,101864
2017-05-09T08:00:58.478Z,101859
2017-05-09T08:03:27.417Z,101865
2017-05-09T08:05:56.343Z,101870
2017-05-09T08:08:25.276Z,101856
2017-05-09T08:10:54.972Z,101861
2017-05-09T08:13:24.648Z,101855
2017-05-09T08:15:53.563Z,101854
2017-05-09T08:18:22.515Z,101859
2017-05-09T08:20:51.426Z,101846
2017-05-09T08:23:20.341Z,101844
2017-05-09T08:25:49.305Z,101836
2017-05-09T08:28:18.239Z,101837
2017-05-09T08:30:47.166Z,101847
2017-05-09T08:33:16.317Z,101852
2017-05-09T08:35:45.234Z,101852
2017-05-09T08:38:14.171Z,101856
2017-05-09T08:40:43.125Z,101849
2017-05-09T08:43:12.056Z,101848
2017-05-09T08:45:40.969Z,101857
2017-05-09T08:48:09.940Z,101864
2017-05-09T08:50:38.853Z,101857
2017-05-09T08:53:07.769Z,101861
2017-05-09T08:55:37.481Z,101861
2017-05-09T08:58:07.133Z,101871
2017-05-09T09:00:36.050Z,101856
2017-05-09T09:03:04.986Z,101857
2017-05-09T09:05:33.902Z,101858
2017-05-09T09:08:02.832Z,101856
2017-05-09T09:10:31.773Z,101850
2017-05-09T09:13:00.708Z,101852
2017-05-09T09:15:29.622Z,101852
2017-05-09T09:17:58.593Z,101844
2017-05-09T09:20:27.505Z,101851
2017-05-09T09:22:56.437Z,101844
2017-05-09T09:25:25.392Z,101845
2017-05-09T09:27:54.320Z,101844
2017-05-09T09:30:23.255Z,101839
2017-05-09T09:32:52.219Z,101837
2017-05-09T09:35:21.131Z,101841
2017-05-09T09:37:50.042Z,101833
2017-05-09T09:40:19.002Z,101833
2017-05-09T09:42:47.933Z,101830
2017-05-09T09:45:16.864Z,101815
2017-05-09T09:47:45.904Z,101824
2017-05-09T09:50:14.832Z,101819
2017-05-09T09:52:44.501Z,101814
2017-05-09T09:55:13.438Z,101819
2017-05-09T09:57:43.112Z,101823
2017-05-09T10:00:12.039Z,101822
2017-05-09T10:02:41.736Z,101819
2017-05-09T10:05:11.405Z,101810
2017-05-09T10:07:40.338Z,101813
2017-05-09T10:10:10.048Z,101814
2017-05-09T10:12:38.978Z,101806
2017-05-09T10:15:07.908Z,101804
2017-05-09T10:17:36.856Z,101806
2017-05-09T10:20:05.781Z,101798
2017-05-09T10:22:34.704Z,101801
2017-05-09T10:25:03.641Z,101799
2017-05-09T10:27:32.630Z,101802
2017-05-09T10:30:01.538Z,101810
2017-05-09T10:32:30.485Z,101795
2017-05-09T10:35:00.153Z,101789
2017-05-09T10:37:29.062Z,101789
2017-05-09T10:39:58.017Z,101769
2017-05-09T10:42:26.940Z,101774
2017-05-09T10:44:55.864Z,101770
2017-05-09T10:47:25.592Z,101780
2017-05-09T10:49:55.238Z,101773
2017-05-09T10:52:24.146Z,101768
2017-05-09T10:54:53.087Z,101761
2017-05-09T10:57:22.015Z,101765
2017-05-09T10:59:50.927Z,101760
2017-05-09T11:02:19.861Z,101751
2017-05-09T11:04:48.786Z,101761
2017-05-09T11:07:17.694Z,101746
2017-05-09T11:09:46.621Z,101748
2017-05-09T11:12:16.266Z,101743
2017-05-09T11:14:45.191Z,101730
2017-05-09T11:17:14.140Z,101734
2017-05-09T11:19:43.050Z,101722
2017-05-09T11:22:11.953Z,101736
2017-05-09T11:24:40.904Z,101725
2017-05-09T11:27:10.569Z,101720
2017-05-09T11:29:39.478Z,101715
2017-05-09T11:32:08.410Z,101721
2017-05-09T11:34:37.336Z,101715
2017-05-09T11:37:08.517Z,101711
2017-05-09T11:39:38.198Z,101703
2017-05-09T11:42:07.132Z,101698
2017-05-09T11:44:36.809Z,101690
2017-05-09T11:47:05.760Z,101689
2017-05-09T11:49:34.701Z,101683
2017-05-09T11:52:03.610Z,101701
2017-05-09T11:54:33.314Z,101711
2017-05-09T11:57:02.978Z,101692
2017-05-09T11:59:31.894Z,101689
2017-05-09T12:02:00.844Z,101695
2017-05-09T12:04:29.767Z,101687
2017-05-09T12:06:58.712Z,101690
2017-05-09T12:09:27.670Z,101688
2017-05-09T12:11:56.604Z,101691
2017-05-09T12:14:25.513Z,101682
2017-05-09T12:16:54.466Z,101686
2017-05-09T12:19:24.141Z,101686
2017-05-09T12:21:53.063Z,101684
2017-05-09T12:24:22.809Z,101670
2017-05-09T12:26:51.745Z,101679
2017-05-09T12:29:20.658Z,101661
2017-05-09T12:31:49.599Z,101667
2017-05-09T12:34:18.517Z,101663
2017-05-09T12:36:47.449Z,101663
2017-05-09T12:39:16.385Z,101659
2017-05-09T12:41:46.053Z,101648
2017-05-09T12:44:14.985Z,101648
2017-05-09T12:46:44.708Z,101637
2017-05-09T12:49:14.384Z,101655
2017-05-09T12:51:43.347Z,101645
2017-05-09T12:54:12.295Z,101643
2017-05-09T12:56:41.965Z,101644
2017-05-09T12:59:10.897Z,101633
2017-05-09T13:01:40.597Z,101619
2017-05-09T13:04:09.530Z,101622
2017-05-09T13:06:38.464Z,101623
2017-05-09T13:09:08.145Z,101614
2017-05-09T13:11:37.081Z,101612
2017-05-09T13:14:06.040Z,101609
2017-05-09T13:16:35.102Z,101594
2017-05-09T13:19:04.037Z,101592
2017-05-09T13:21:32.957Z,101585
2017-05-09T13:24:01.914Z,101586
2017-05-09T13:26:30.849Z,101572
2017-05-09T13:28:59.757Z,101569
2017-05-09T13:31:28.694Z,101570
2017-05-09T13:33:57.606Z,101570
2017-05-09T13:36:27.277Z,101565
2017-05-09T13:38:56.229Z,101559
2017-05-09T13:41:25.178Z,101563
2017-05-09T13:43:54.183Z,101549
2017-05-09T13:46:23.189Z,101555
2017-05-09T13:48:52.860Z,101546
2017-05-09T13:51:21.770Z,101545
2017-05-09T13:53:50.716Z,101538
2017-05-09T13:56:19.653Z,101551
2017-05-09T13:58:48.588Z,101528
2017-05-09T14:01:17.540Z,101546
2017-05-09T14:03:46.453Z,101531
2017-05-09T14:06:16.110Z,101536
2017-05-09T14:08:45.053Z,101533
2017-05-09T14:11:14.724Z,101517
2017-05-09T14:13:43.660Z,101517
2017-05-09T14:16:12.626Z,101519
2017-05-09T14:18:41.589Z,101507
2017-05-09T14:21:10.782Z,101507
2017-05-09T14:23:39.725Z,101500
2017-05-09T14:26:09.400Z,101508
2017-05-09T14:28:38.332Z,101504
2017-05-09T14:31:08.028Z,101507
2017-05-09T14:33:36.957Z,101505
2017-05-09T14:36:05.908Z,101500
2017-05-09T14:38:34.869Z,101492
2017-05-09T14:41:05.643Z,101494
2017-05-09T14:43:34.557Z,101494
2017-05-09T14:46:04.238Z,101490
2017-05-09T14:48:33.169Z,101480
2017-05-09T14:51:02.095Z,101491
2017-05-09T14:53:31.037Z,101480
2017-05-09T14:56:00.709Z,101490
2017-05-09T14:58:29.642Z,101475
2017-05-09T15:00:59.322Z,101471
2017-05-09T15:03:28.256Z,101464
2017-05-09T15:05:57.170Z,101467
2017-05-09T15:08:25.681Z,101458
2017-05-09T15:10:54.613Z,101451
2017-05-09T15:13:24.284Z,101455
2017-05-09T15:15:53.227Z,101455
2017-05-09T15:18:22.137Z,101450
2017-05-09T15:20:51.073Z,101450
2017-05-09T15:23:20.035Z,101451
2017-05-09T15:25:48.967Z,101452
2017-05-09T15:28:18.623Z,101439
2017-05-09T15:30:47.566Z,101443
2017-05-09T15:33:16.500Z,101446
2017-05-09T15:35:45.413Z,101423
2017-05-09T15:38:14.355Z,101434
2017-05-09T15:40:44.027Z,101438
2017-05-09T15:43:12.956Z,101428
2017-05-09T15:45:42.455Z,101428
2017-05-09T15:48:12.064Z,101435
2017-05-09T15:50:41.045Z,101436
2017-05-09T15:53:09.992Z,101417
2017-05-09T15:55:38.909Z,101419
2017-05-09T15:58:07.841Z,101428
2017-05-09T16:00:36.849Z,101427
2017-05-09T16:03:06.524Z,101420
2017-05-09T16:05:35.464Z,101423
2017-05-09T16:08:04.410Z,101420
2017-05-09T16:10:33.348Z,101417
2017-05-09T16:13:02.266Z,101405
2017-05-09T16:15:32.159Z,101408
2017-05-09T16:18:01.069Z,101396
2017-05-09T16:20:29.978Z,101404
2017-05-09T16:22:58.937Z,101391
2017-05-09T16:25:27.869Z,101382
2017-05-09T16:27:56.782Z,101382
2017-05-09T16:30:25.736Z,101375
2017-05-09T16:32:55.123Z,101368
2017-05-09T16:35:24.034Z,101371
2017-05-09T16:37:52.978Z,101369
2017-05-09T16:40:23.438Z,101371
2017-05-09T16:42:52.389Z,101378
2017-05-09T16:45:21.409Z,101380
2017-05-09T16:47:51.089Z,101377
2017-05-09T16:50:20.004Z,101378
2017-05-09T16:52:49.681Z,101369
2017-05-09T16:55:18.594Z,101362
2017-05-09T16:57:48.253Z,101366
2017-05-09T17:00:17.211Z,101363
2017-05-09T17:02:46.880Z,101351
2017-05-09T17:05:15.806Z,101349
2017-05-09T17:07:45.504Z,101349
2017-05-09T17:10:14.440Z,101346
2017-05-09T17:12:43.369Z,101342
2017-05-09T17:15:12.333Z,101346
2017-05-09T17:17:41.261Z,101336
2017-05-09T17:20:10.197Z,101340
2017-05-09T17:22:39.133Z,101337
2017-05-09T17:25:08.065Z,101336
2017-05-09T17:27:37.736Z,101328
2017-05-09T17:30:06.696Z,101323
2017-05-09T17:32:35.610Z,101327
2017-05-09T17:35:04.527Z,101325
2017-05-09T17:37:33.470Z,101328
2017-05-09T17:40:02.413Z,101323
2017-05-09T17:42:31.326Z,101326
2017-05-09T17:45:01.036Z,101325
2017-05-09T17:47:30.705Z,101316
2017-05-09T17:49:59.640Z,101330
2017-05-09T17:52:29.344Z,101315
2017-05-09T17:54:59.001Z,101320
2017-05-09T17:57:27.918Z,101323
2017-05-09T17:59:56.856Z,101313
2017-05-09T18:02:25.774Z,101313
2017-05-09T18:04:54.707Z,101311
2017-05-09T18:07:23.668Z,101314
2017-05-09T18:09:52.582Z,101313
2017-05-09T18:12:21.497Z,101307
2017-05-09T18:14:51.184Z,101316
2017-05-09T18:17:20.118Z,101310
2017-05-09T18:19:49.054Z,101314
2017-05-09T18:22:18.016Z,101311
2017-05-09T18:24:46.949Z,101308
2017-05-09T18:27:15.873Z,101312
2017-05-09T18:29:45.582Z,101304
2017-05-09T18:32:15.259Z,101311
2017-05-09T18:34:44.179Z,101298
2017-05-09T18:37:13.142Z,101297
2017-05-09T18:39:42.054Z,101303
2017-05-09T18:42:10.971Z,101300
2017-05-09T18:44:40.670Z,101303
2017-05-09T18:47:10.328Z,101288
2017-05-09T18:49:39.246Z,101286
2017-05-09T18:52:08.197Z,101287
2017-05-09T18:54:37.129Z,101282
2017-05-09T18:57:06.044Z,101287
2017-05-09T18:59:35.006Z,101291
2017-05-09T19:02:03.931Z,101287
2017-05-09T19:04:34.574Z,101279
2017-05-09T19:07:04.297Z,101287
2017-05-09T19:09:33.318Z,101290
2017-05-09T19:12:03.172Z,101280
2017-05-09T19:14:32.114Z,101284
2017-05-09T19:17:01.027Z,101288
2017-05-09T19:19:29.949Z,101275
2017-05-09T19:21:58.891Z,101288
2017-05-09T19:24:27.827Z,101279
2017-05-09T19:26:56.762Z,101283
2017-05-09T19:29:25.733Z,101277
2017-05-09T19:31:55.394Z,101283
2017-05-09T19:34:24.314Z,101275
2017-05-09T19:36:53.270Z,101272
2017-05-09T19:39:22.189Z,101274
2017-05-09T19:41:51.121Z,101275
2017-05-09T19:44:20.833Z,101269
2017-05-09T19:46:50.502Z,101261
2017-05-09T19:49:19.425Z,101264
2017-05-09T19:51:49.125Z,101250
2017-05-09T19:54:18.042Z,101263
2017-05-09T19:56:46.959Z,101260
2017-05-09T19:59:15.939Z,101260
2017-05-09T20:01:44.929Z,101257
2017-05-09T20:04:13.871Z,101247
2017-05-09T20:06:42.823Z,101259
2017-05-09T20:09:11.740Z,101259
2017-05-09T20:11:40.717Z,101251
2017-05-09T20:14:09.676Z,101246
2017-05-09T20:16:39.354Z,101254
2017-05-09T20:19:08.314Z,101247
2017-05-09T20:21:37.277Z,101237
2017-05-09T20:24:06.936Z,101237
2017-05-09T20:26:35.855Z,101230
2017-05-09T20:29:04.796Z,101232
2017-05-09T20:31:33.746Z,101228
2017-05-09T20:34:02.664Z,101223
2017-05-09T20:36:31.602Z,101230
2017-05-09T20:39:00.532Z,101229
2017-05-09T20:41:30.222Z,101225
2017-05-09T20:43:59.843Z,101224
2017-05-09T20:46:30.327Z,101218
2017-05-09T20:48:59.243Z,101215
2017-05-09T20:51:28.208Z,101221
2017-05-09T20:53:57.141Z,101221
2017-05-09T20:56:26.059Z,101220
2017-05-09T20:58:55.007Z,101223
2017-05-09T21:01:23.965Z,101212
2017-05-09T21:03:52.909Z,101211
2017-05-09T21:06:21.873Z,101212
2017-05-09T21:08:50.812Z,101209
2017-05-09T21:11:20.488Z,101212
2017-05-09T21:13:49.448Z,101207
2017-05-09T21:16:18.363Z,101214
2017-05-09T21:18:47.291Z,101206
2017-05-09T21:21:16.995Z,101209
2017-05-09T21:23:45.960Z,101196
2017-05-09T21:26:14.892Z,101197
2017-05-09T21:28:44.612Z,101196
2017-05-09T21:31:14.290Z,101196
2017-05-09T21:33:43.556Z,101201
2017-05-09T21:36:12.528Z,101195
2017-05-09T21:38:41.575Z,101195
2017-05-09T21:41:10.520Z,101185
2017-05-09T21:43:39.475Z,101187
2017-05-09T21:46:08.414Z,101184
2017-05-09T21:48:37.341Z,101186
2017-05-09T21:51:06.302Z,101181
2017-05-09T21:53:35.233Z,101172
2017-05-09T21:56:04.197Z,101175
2017-05-09T21:58:33.130Z,101157
2017-05-09T22:01:02.047Z,101164
2017-05-09T22:03:31.698Z,101151
2017-05-09T22:06:00.653Z,101163
2017-05-09T22:08:29.575Z,101150
2017-05-09T22:10:58.517Z,101145
2017-05-09T22:13:28.191Z,101141
2017-05-09T22:15:57.121Z,101137
2017-05-09T22:18:26.774Z,101136
2017-05-09T22:20:55.713Z,101141
2017-05-09T22:23:24.633Z,101140
2017-05-09T22:25:53.565Z,101138
2017-05-09T22:28:23.375Z,101135
2017-05-09T22:30:52.287Z,101141
2017-05-09T22:33:21.216Z,101141
2017-05-09T22:35:50.893Z,101134
2017-05-09T22:38:19.799Z,101129
2017-05-09T22:40:48.736Z,101127
2017-05-09T22:43:17.686Z,101119
2017-05-09T22:45:47.366Z,101116
2017-05-09T22:48:16.304Z,101116
2017-05-09T22:50:45.981Z,101107
2017-05-09T22:53:14.918Z,101106
2017-05-09T22:55:43.830Z,101103
2017-05-09T22:58:12.790Z,101092
2017-05-09T23:00:42.438Z,101100
2017-05-09T23:03:11.348Z,101088
2017-05-09T23:05:40.317Z,101091
2017-05-09T23:08:09.241Z,101081
2017-05-09T23:10:38.150Z,101082
2017-05-09T23:13:07.083Z,101088
2017-05-09T23:15:36.009Z,101092
2017-05-09T23:18:04.943Z,101088
2017-05-09T23:20:34.625Z,101080
2017-05-09T23:23:03.555Z,101079
2017-05-09T23:25:32.462Z,101077
2017-05-09T23:28:01.406Z,101078
2017-05-09T23:30:30.336Z,101082
2017-05-09T23:32:59.266Z,101070
2017-05-09T23:35:28.204Z,101076
2017-05-09T23:37:57.849Z,101073
2017-05-09T23:40:26.753Z,101058
2017-05-09T23:42:55.708Z,101064
2017-05-09T23:45:24.637Z,101065
2017-05-09T23:47:53.561Z,101059
2017-05-09T23:50:22.512Z,101062
2017-05-09T23:52:51.415Z,101061
2017-05-09T23:55:20.327Z,101060
2017-05-09T23:57:49.262Z,101052
